Time;durP1;ratioP1;P1;durP2;ratioP2;P2;SDS_P1;SDS_P2;PMS_P1;PMS_P2;Temp;Humidity;BMP_temperature;BMP_pressure;BME280_temperature;BME280_humidity;BME280_pressure;Samples;Min_cycle;Max_cycle;Signal;HPM_P1;HPM_P2
2023/01/11 00:01:50;;;;;;;11.70;7.40;;;;;;;;;;5079623;28;20472;-80
2023/01/11 00:04:17;;;;;;;12.90;7.60;;;;;;;;;;5077567;28;20435;-80
2023/01/11 00:06:43;;;;;;;8.43;7.30;;;;;;;;;;5078947;28;20482;-80
2023/01/11 00:09:10;;;;;;;8.07;6.07;;;;;;;;;;5082444;28;20483;-80
2023/01/11 00:11:37;;;;;;;7.13;6.40;;;;;;;;;;5080600;28;20467;-80
2023/01/11 00:14:03;;;;;;;8.87;7.57;;;;;;;;;;5080514;28;20462;-80
2023/01/11 00:16:31;;;;;;;9.50;6.63;;;;;;;;;;5074499;28;20468;-80
2023/01/11 00:18:57;;;;;;;11.47;8.00;;;;;;;;;;5082632;28;20483;-80
2023/01/11 00:21:25;;;;;;;7.53;6.70;;;;;;;;;;5070635;28;20562;-80
2023/01/11 00:23:51;;;;;;;11.10;8.00;;;;;;;;;;5076758;28;20462;-80
2023/01/11 00:26:18;;;;;;;11.00;7.50;;;;;;;;;;5077510;28;20823;-80
2023/01/11 00:28:44;;;;;;;14.63;7.03;;;;;;;;;;5077350;28;20474;-80
2023/01/11 00:31:10;;;;;;;8.13;7.33;;;;;;;;;;5074146;28;20471;-80
2023/01/11 00:33:38;;;;;;;9.60;6.13;;;;;;;;;;5079887;28;20447;-80
2023/01/11 00:36:05;;;;;;;11.87;8.07;;;;;;;;;;5075086;28;20483;-80
2023/01/11 00:38:45;;;;;;;7.37;6.67;;;;;;;;;;5072034;28;20499;-80
2023/01/11 00:49:27;;;;;;;10.97;8.80;;;;;;;;;;5074003;28;20483;-80
2023/01/11 00:51:54;;;;;;;11.70;8.10;;;;;;;;;;5078007;28;20557;-80
2023/01/11 00:54:20;;;;;;;9.47;7.67;;;;;;;;;;5078477;28;20918;-80
2023/01/11 00:56:47;;;;;;;10.60;9.50;;;;;;;;;;5077164;28;20463;-80
2023/01/11 00:59:13;;;;;;;10.03;8.03;;;;;;;;;;5075930;28;20482;-80
2023/01/11 01:01:39;;;;;;;9.77;8.77;;;;;;;;;;5075891;28;20475;-80
2023/01/11 01:04:06;;;;;;;9.80;8.30;;;;;;;;;;5077781;28;20960;-80
2023/01/11 01:06:33;;;;;;;10.77;7.93;;;;;;;;;;5081634;28;20467;-80
2023/01/11 01:09:00;;;;;;;12.03;8.17;;;;;;;;;;5078943;28;20487;-80
2023/01/11 01:11:26;;;;;;;10.47;8.43;;;;;;;;;;5076797;28;20475;-80
2023/01/11 01:16:36;;;;;;;13.87;9.57;;;;;;;;;;5077087;28;20506;-80
2023/01/11 01:19:03;;;;;;;12.03;9.10;;;;;;;;;;5074886;28;20483;-80
2023/01/11 01:21:30;;;;;;;12.10;10.33;;;;;;;;;;5077694;28;20472;-80
2023/01/11 01:23:57;;;;;;;12.70;9.20;;;;;;;;;;5071878;28;20844;-80
2023/01/11 01:26:25;;;;;;;10.43;9.43;;;;;;;;;;5079645;28;20476;-80
2023/01/11 01:28:51;;;;;;;9.77;8.87;;;;;;;;;;5079493;28;20494;-80
2023/01/11 01:31:18;;;;;;;10.80;9.70;;;;;;;;;;5073600;28;20462;-80
2023/01/11 01:33:44;;;;;;;12.80;10.33;;;;;;;;;;5081000;28;20459;-80
2023/01/11 01:36:10;;;;;;;12.57;10.60;;;;;;;;;;5075494;28;20463;-80
2023/01/11 01:38:37;;;;;;;12.73;9.27;;;;;;;;;;5072184;28;20550;-80
2023/01/11 01:41:07;;;;;;;11.27;10.17;;;;;;;;;;5073907;28;20444;-80
2023/01/11 01:43:47;;;;;;;12.10;10.90;;;;;;;;;;5072213;28;20825;-80
2023/01/11 01:46:13;;;;;;;12.27;10.23;;;;;;;;;;5081148;28;20467;-80
2023/01/11 01:48:41;;;;;;;11.67;10.50;;;;;;;;;;5075696;28;20489;-80
2023/01/11 01:51:08;;;;;;;11.80;10.60;;;;;;;;;;5079455;28;20463;-80
2023/01/11 01:53:36;;;;;;;11.67;10.50;;;;;;;;;;5079859;28;20537;-80
2023/01/11 01:56:05;;;;;;;13.47;11.23;;;;;;;;;;5074708;28;20471;-80
2023/01/11 01:58:35;;;;;;;13.77;10.70;;;;;;;;;;5074303;28;20478;-80
2023/01/11 02:01:45;;;;;;;11.23;10.07;;;;;;;;;;5077625;28;20451;-80
2023/01/11 02:03:50;;;;;;;11.03;9.90;;;;;;;;;;5076354;28;20480;-80
2023/01/11 02:06:16;;;;;;;11.37;10.27;;;;;;;;;;5074444;28;20467;-80
2023/01/11 02:08:44;;;;;;;11.60;9.97;;;;;;;;;;5074312;28;20468;-80
2023/01/11 02:13:55;;;;;;;11.13;10.03;;;;;;;;;;5078038;28;20452;-80
2023/01/11 02:16:21;;;;;;;11.20;9.83;;;;;;;;;;5073368;28;20467;-80
2023/01/11 02:18:48;;;;;;;10.93;9.87;;;;;;;;;;5079542;28;21089;-80
2023/01/11 02:21:21;;;;;;;9.80;8.77;;;;;;;;;;5075341;28;20463;-80
2023/01/11 02:23:59;;;;;;;10.80;9.43;;;;;;;;;;5069227;28;20976;-80
2023/01/11 02:26:40;;;;;;;11.13;9.93;;;;;;;;;;5072282;28;20466;-80
2023/01/11 02:29:11;;;;;;;10.50;9.33;;;;;;;;;;5077714;28;20487;-80
2023/01/11 02:31:41;;;;;;;10.80;9.17;;;;;;;;;;5069988;28;20471;-80
2023/01/11 02:34:18;;;;;;;11.33;10.17;;;;;;;;;;5075026;28;20456;-80
2023/01/11 02:36:50;;;;;;;12.70;11.37;;;;;;;;;;5077884;28;20475;-80
2023/01/11 02:39:21;;;;;;;10.53;8.80;;;;;;;;;;5068176;28;20459;-80
2023/01/11 02:47:29;;;;;;;11.27;10.10;;;;;;;;;;5072918;28;20483;-80
2023/01/11 02:49:58;;;;;;;11.50;10.40;;;;;;;;;;5075901;28;20455;-80
2023/01/11 02:52:27;;;;;;;11.13;10.07;;;;;;;;;;5075818;28;21027;-80
2023/01/11 02:54:55;;;;;;;12.40;11.00;;;;;;;;;;5073337;28;20467;-80
2023/01/11 02:57:22;;;;;;;11.10;9.90;;;;;;;;;;5075727;28;21000;-80
2023/01/11 02:59:50;;;;;;;15.60;10.57;;;;;;;;;;5074400;28;20459;-80
2023/01/11 03:02:17;;;;;;;11.03;9.93;;;;;;;;;;5062012;28;20469;-80
2023/01/11 03:04:43;;;;;;;12.13;10.37;;;;;;;;;;5049948;28;20472;-81
2023/01/11 03:07:15;;;;;;;12.73;11.03;;;;;;;;;;5065631;28;20476;-80
2023/01/11 03:09:47;;;;;;;11.43;10.33;;;;;;;;;;5074088;28;20438;-80
2023/01/11 03:15:19;;;;;;;12.90;11.70;;;;;;;;;;5072805;28;20439;-80
2023/01/11 03:17:50;;;;;;;11.30;10.10;;;;;;;;;;5074656;28;20851;-80
2023/01/11 03:20:20;;;;;;;14.17;10.10;;;;;;;;;;5074501;28;20961;-80
2023/01/11 03:22:56;;;;;;;10.87;9.83;;;;;;;;;;5070435;28;21120;-80
2023/01/11 03:25:23;;;;;;;11.13;10.03;;;;;;;;;;5073503;28;20481;-80
2023/01/11 03:27:52;;;;;;;11.50;10.40;;;;;;;;;;5077529;28;20475;-80
2023/01/11 03:30:21;;;;;;;11.80;10.20;;;;;;;;;;5071927;28;20463;-80
2023/01/11 03:32:50;;;;;;;12.43;11.10;;;;;;;;;;5072649;28;20471;-80
2023/01/11 03:35:19;;;;;;;11.87;10.67;;;;;;;;;;5077232;28;20990;-80
2023/01/11 03:37:47;;;;;;;10.13;8.97;;;;;;;;;;5080234;28;20482;-80
2023/01/11 03:40:16;;;;;;;11.33;10.23;;;;;;;;;;5076306;28;20465;-80
2023/01/11 03:45:27;;;;;;;10.40;9.50;;;;;;;;;;5079031;28;20508;-81
2023/01/11 03:47:55;;;;;;;11.20;9.87;;;;;;;;;;5082745;28;20486;-80
2023/01/11 03:50:22;;;;;;;10.50;9.50;;;;;;;;;;5078964;28;20835;-80
2023/01/11 03:52:50;;;;;;;10.70;9.60;;;;;;;;;;5076335;28;20484;-80
2023/01/11 03:55:16;;;;;;;12.00;9.90;;;;;;;;;;5078745;28;20549;-80
2023/01/11 03:57:46;;;;;;;9.70;8.70;;;;;;;;;;5079253;28;20471;-80
2023/01/11 04:00:12;;;;;;;10.70;9.23;;;;;;;;;;5079718;28;20458;-80
2023/01/11 04:02:40;;;;;;;11.87;10.13;;;;;;;;;;5078656;28;20470;-80
2023/01/11 04:05:07;;;;;;;9.70;8.70;;;;;;;;;;5077032;28;20462;-80
2023/01/11 04:07:35;;;;;;;9.90;8.00;;;;;;;;;;5077860;28;20475;-80
2023/01/11 04:10:01;;;;;;;10.20;8.63;;;;;;;;;;5080098;28;20455;-80
2023/01/11 04:12:28;;;;;;;9.33;8.37;;;;;;;;;;5081332;28;20980;-80
2023/01/11 04:14:54;;;;;;;8.90;8.00;;;;;;;;;;5079605;28;20823;-80
2023/01/11 04:17:20;;;;;;;9.40;8.40;;;;;;;;;;5074266;28;20486;-80
2023/01/11 04:19:48;;;;;;;9.30;8.33;;;;;;;;;;5080960;28;20470;-80
2023/01/11 04:22:14;;;;;;;9.50;8.60;;;;;;;;;;5083101;28;20463;-80
2023/01/11 04:24:41;;;;;;;9.03;8.20;;;;;;;;;;5078193;28;20969;-80
2023/01/11 04:27:07;;;;;;;7.67;6.97;;;;;;;;;;5075540;28;20861;-80
2023/01/11 04:29:33;;;;;;;9.23;8.23;;;;;;;;;;5079939;28;20462;-80
2023/01/11 04:32:00;;;;;;;9.10;6.77;;;;;;;;;;5076140;28;20471;-80
2023/01/11 04:34:26;;;;;;;7.67;6.97;;;;;;;;;;5078330;28;21109;-80
2023/01/11 04:36:54;;;;;;;8.73;7.90;;;;;;;;;;5074723;28;20474;-80
2023/01/11 04:39:21;;;;;;;10.03;7.30;;;;;;;;;;5076061;28;20470;-80
2023/01/11 04:44:31;;;;;;;8.60;7.80;;;;;;;;;;5076283;28;20438;-80
2023/01/11 04:46:57;;;;;;;7.87;7.07;;;;;;;;;;5079991;28;20478;-80
2023/01/11 04:49:24;;;;;;;7.73;6.90;;;;;;;;;;5071527;28;20483;-80
2023/01/11 04:51:50;;;;;;;7.03;6.33;;;;;;;;;;5075396;28;20869;-80
2023/01/11 04:54:18;;;;;;;7.50;6.80;;;;;;;;;;5081467;28;20458;-80
2023/01/11 04:56:45;;;;;;;8.50;6.83;;;;;;;;;;5076703;28;20475;-80
2023/01/11 04:59:11;;;;;;;6.70;6.20;;;;;;;;;;5077430;28;20486;-80
2023/01/11 05:01:38;;;;;;;9.17;8.13;;;;;;;;;;5077942;28;20558;-80
2023/01/11 05:04:04;;;;;;;7.00;6.40;;;;;;;;;;5083437;28;20439;-80
2023/01/11 05:06:30;;;;;;;6.67;6.13;;;;;;;;;;5075012;28;20470;-80
2023/01/11 05:08:57;;;;;;;7.33;6.63;;;;;;;;;;5077064;28;20483;-80
2023/01/11 05:11:24;;;;;;;7.17;6.40;;;;;;;;;;5071440;28;20531;-80
2023/01/11 05:13:52;;;;;;;7.20;6.50;;;;;;;;;;5075805;28;20444;-80
2023/01/11 05:16:20;;;;;;;7.73;7.03;;;;;;;;;;5078116;28;20480;-81
2023/01/11 05:18:47;;;;;;;7.90;7.20;;;;;;;;;;5072522;28;20479;-81
2023/01/11 05:21:15;;;;;;;7.37;6.67;;;;;;;;;;5077114;28;20462;-80
2023/01/11 05:23:42;;;;;;;7.40;6.70;;;;;;;;;;5072313;28;20447;-80
2023/01/11 05:26:10;;;;;;;7.33;6.73;;;;;;;;;;5073559;28;20475;-80
2023/01/11 05:28:37;;;;;;;7.60;6.90;;;;;;;;;;5080425;28;20848;-81
2023/01/11 05:31:04;;;;;;;8.27;7.47;;;;;;;;;;5072959;28;20469;-80
2023/01/11 05:33:30;;;;;;;7.80;7.10;;;;;;;;;;5076505;28;20952;-80
2023/01/11 05:35:57;;;;;;;8.10;7.40;;;;;;;;;;5078315;28;20459;-81
2023/01/11 05:38:23;;;;;;;8.10;7.30;;;;;;;;;;5073499;28;20479;-80
2023/01/11 05:40:55;;;;;;;7.77;7.07;;;;;;;;;;5074098;28;20783;-80
2023/01/11 05:43:21;;;;;;;8.50;7.70;;;;;;;;;;5080495;28;20454;-80
2023/01/11 05:45:48;;;;;;;7.67;6.87;;;;;;;;;;5080285;28;20455;-80
2023/01/11 05:48:14;;;;;;;9.00;8.13;;;;;;;;;;5075027;28;20478;-80
2023/01/11 05:50:41;;;;;;;8.43;7.63;;;;;;;;;;5077875;28;20477;-80
2023/01/11 05:53:07;;;;;;;9.43;8.53;;;;;;;;;;5072333;28;20486;-80
2023/01/11 05:55:34;;;;;;;10.60;9.60;;;;;;;;;;5072102;28;20459;-80
2023/01/11 05:58:00;;;;;;;9.27;8.37;;;;;;;;;;5076033;28;20473;-80
2023/01/11 06:00:26;;;;;;;10.00;9.00;;;;;;;;;;5075263;28;20459;-80
2023/01/11 06:02:54;;;;;;;8.80;8.00;;;;;;;;;;5070217;28;20857;-80
2023/01/11 06:05:21;;;;;;;8.20;7.43;;;;;;;;;;5075437;28;20960;-80
2023/01/11 06:07:47;;;;;;;9.50;7.93;;;;;;;;;;5076288;28;20474;-80
2023/01/11 06:10:13;;;;;;;13.80;9.27;;;;;;;;;;5079791;28;20458;-80
2023/01/11 06:12:40;;;;;;;11.70;8.93;;;;;;;;;;5076412;28;20486;-80
2023/01/11 06:15:07;;;;;;;9.67;8.70;;;;;;;;;;5072787;28;20459;-80
2023/01/11 06:17:33;;;;;;;9.97;8.97;;;;;;;;;;5073085;28;20474;-80
2023/01/11 06:20:01;;;;;;;9.70;8.80;;;;;;;;;;5077204;28;20465;-80
2023/01/11 06:22:27;;;;;;;9.80;8.90;;;;;;;;;;5074423;28;20471;-80
2023/01/11 06:24:59;;;;;;;12.60;9.83;;;;;;;;;;5071894;28;20465;-81
2023/01/11 06:27:27;;;;;;;10.53;9.50;;;;;;;;;;5072862;28;20477;-80
2023/01/11 06:29:53;;;;;;;10.40;9.40;;;;;;;;;;5072779;28;20465;-80
2023/01/11 06:32:19;;;;;;;13.50;9.03;;;;;;;;;;5073419;28;20490;-82
2023/01/11 06:34:46;;;;;;;9.83;8.83;;;;;;;;;;5073462;28;20461;-81
2023/01/11 06:37:13;;;;;;;10.57;9.50;;;;;;;;;;5068112;28;20486;-82
2023/01/11 06:39:39;;;;;;;9.57;8.63;;;;;;;;;;5071785;28;20443;-82
2023/01/11 06:42:06;;;;;;;10.90;9.90;;;;;;;;;;5068355;28;20479;-82
2023/01/11 06:44:32;;;;;;;10.63;9.63;;;;;;;;;;5076426;28;20474;-82
2023/01/11 06:46:59;;;;;;;11.97;10.03;;;;;;;;;;5074623;28;20466;-82
2023/01/11 06:49:25;;;;;;;10.03;9.10;;;;;;;;;;5074432;28;20482;-82
2023/01/11 06:51:51;;;;;;;9.80;8.80;;;;;;;;;;5066737;28;20463;-82
2023/01/11 06:54:21;;;;;;;10.30;9.30;;;;;;;;;;5069575;28;20439;-81
2023/01/11 06:56:48;;;;;;;11.10;10.00;;;;;;;;;;5073409;28;20479;-82
2023/01/11 06:59:14;;;;;;;10.23;9.20;;;;;;;;;;5069638;28;20474;-83
2023/01/11 07:01:40;;;;;;;10.17;9.20;;;;;;;;;;5068778;28;20509;-82
2023/01/11 07:04:07;;;;;;;9.80;8.90;;;;;;;;;;5070936;28;20443;-81
2023/01/11 07:06:34;;;;;;;10.40;8.63;;;;;;;;;;5071925;28;20475;-82
2023/01/11 07:09:00;;;;;;;13.83;9.20;;;;;;;;;;5070866;28;21176;-82
2023/01/11 07:11:30;;;;;;;12.40;9.20;;;;;;;;;;5074928;28;20839;-82
2023/01/11 07:13:56;;;;;;;11.23;9.47;;;;;;;;;;5072075;28;20530;-83
2023/01/11 07:16:23;;;;;;;9.43;8.40;;;;;;;;;;5071778;28;20475;-82
2023/01/11 07:18:49;;;;;;;12.43;8.87;;;;;;;;;;5074819;28;20871;-82
2023/01/11 07:21:16;;;;;;;8.93;8.03;;;;;;;;;;5069632;28;20470;-81
2023/01/11 07:23:42;;;;;;;6.30;5.70;;;;;;;;;;5073443;28;20439;-82
2023/01/11 07:26:08;;;;;;;6.30;5.60;;;;;;;;;;5074475;28;20949;-82
2023/01/11 07:28:36;;;;;;;4.57;4.17;;;;;;;;;;5071322;28;20460;-81
2023/01/11 07:31:02;;;;;;;4.10;2.97;;;;;;;;;;5067425;28;20446;-81
2023/01/11 07:33:28;;;;;;;6.37;2.60;;;;;;;;;;5074785;28;20458;-82
2023/01/11 07:35:57;;;;;;;3.50;2.40;;;;;;;;;;5071050;28;20518;-82
2023/01/11 07:38:23;;;;;;;3.53;2.60;;;;;;;;;;5071297;28;20527;-82
2023/01/11 07:40:49;;;;;;;3.77;2.07;;;;;;;;;;5071291;28;20466;-83
2023/01/11 07:43:17;;;;;;;3.67;1.97;;;;;;;;;;5070443;28;20450;-82
2023/01/11 07:45:46;;;;;;;8.67;1.77;;;;;;;;;;5068097;28;20438;-83
2023/01/11 07:48:13;;;;;;;1.90;1.17;;;;;;;;;;5071111;28;20467;-81
2023/01/11 07:50:40;;;;;;;4.50;1.90;;;;;;;;;;5070225;28;20470;-83
2023/01/11 07:53:07;;;;;;;6.57;1.80;;;;;;;;;;5070953;28;20473;-82
2023/01/11 07:55:33;;;;;;;3.50;1.50;;;;;;;;;;5067300;28;20466;-81
2023/01/11 07:58:00;;;;;;;3.07;1.40;;;;;;;;;;5072255;28;20895;-82
2023/01/11 08:00:26;;;;;;;6.90;2.97;;;;;;;;;;5071581;28;20458;-81
2023/01/11 08:02:54;;;;;;;8.87;2.50;;;;;;;;;;5073804;28;20475;-82
2023/01/11 08:05:20;;;;;;;12.07;1.53;;;;;;;;;;5073056;28;20952;-82
2023/01/11 08:07:47;;;;;;;2.47;1.63;;;;;;;;;;5070036;28;20471;-82
2023/01/11 08:10:14;;;;;;;5.80;1.50;;;;;;;;;;5068877;28;20459;-82
2023/01/11 08:15:28;;;;;;;7.90;2.33;;;;;;;;;;5072183;28;20983;-82
2023/01/11 08:17:56;;;;;;;3.20;2.33;;;;;;;;;;5067631;28;20483;-81
2023/01/11 08:20:22;;;;;;;2.53;1.80;;;;;;;;;;5073809;28;20448;-81
2023/01/11 08:22:48;;;;;;;4.13;2.07;;;;;;;;;;5074977;28;20857;-82
2023/01/11 08:25:15;;;;;;;6.27;2.30;;;;;;;;;;5077727;28;20512;-82
2023/01/11 08:27:41;;;;;;;6.53;2.40;;;;;;;;;;5073059;28;21010;-82
2023/01/11 08:30:08;;;;;;;8.90;2.90;;;;;;;;;;5073185;28;20435;-81
2023/01/11 08:32:34;;;;;;;6.20;2.33;;;;;;;;;;5075477;28;20506;-82
2023/01/11 08:35:02;;;;;;;3.40;2.20;;;;;;;;;;5073249;28;20439;-81
2023/01/11 08:37:28;;;;;;;9.93;2.13;;;;;;;;;;5067528;28;20479;-81
2023/01/11 08:39:55;;;;;;;4.60;2.40;;;;;;;;;;5071908;28;20466;-82
2023/01/11 08:42:22;;;;;;;6.67;2.57;;;;;;;;;;5074872;28;20855;-82
2023/01/11 08:44:48;;;;;;;7.47;2.33;;;;;;;;;;5073642;28;20986;-82
2023/01/11 08:47:14;;;;;;;6.97;2.80;;;;;;;;;;5070099;28;20467;-82
2023/01/11 08:49:41;;;;;;;10.27;4.00;;;;;;;;;;5078373;28;20976;-81
2023/01/11 08:52:11;;;;;;;5.80;3.50;;;;;;;;;;5070713;28;20498;-81
2023/01/11 08:54:38;;;;;;;5.87;5.27;;;;;;;;;;5074194;28;20828;-82
2023/01/11 08:57:04;;;;;;;6.50;4.10;;;;;;;;;;5073836;28;20847;-81
2023/01/11 08:59:30;;;;;;;9.00;5.67;;;;;;;;;;5074626;28;20551;-82
2023/01/11 09:01:57;;;;;;;8.10;3.80;;;;;;;;;;5074898;28;20538;-81
2023/01/11 09:04:23;;;;;;;5.63;3.60;;;;;;;;;;5068066;28;20432;-82
2023/01/11 09:06:50;;;;;;;9.53;4.27;;;;;;;;;;5071593;28;20858;-82
2023/01/11 09:09:17;;;;;;;7.20;4.03;;;;;;;;;;5076154;28;20466;-82
2023/01/11 09:11:57;;;;;;;9.30;3.60;;;;;;;;;;5074289;28;20468;-82
2023/01/11 09:14:25;;;;;;;6.93;4.10;;;;;;;;;;5070376;28;20435;-82
2023/01/11 09:16:51;;;;;;;5.70;3.07;;;;;;;;;;5069691;28;20566;-82
2023/01/11 09:19:17;;;;;;;8.80;3.47;;;;;;;;;;5075391;28;20498;-82
2023/01/11 09:21:44;;;;;;;8.60;3.60;;;;;;;;;;5074492;28;20482;-83
2023/01/11 09:24:10;;;;;;;7.70;3.20;;;;;;;;;;5077437;28;20451;-82
2023/01/11 09:26:40;;;;;;;3.37;3.07;;;;;;;;;;5072178;28;20467;-81
2023/01/11 09:29:06;;;;;;;5.43;3.27;;;;;;;;;;5074017;28;20524;-82
2023/01/11 09:31:33;;;;;;;3.73;3.13;;;;;;;;;;5063884;28;21004;-82
2023/01/11 09:33:59;;;;;;;6.43;3.03;;;;;;;;;;5073453;28;20451;-81
2023/01/11 09:36:26;;;;;;;7.80;3.37;;;;;;;;;;5072616;28;20494;-82
2023/01/11 09:38:56;;;;;;;16.30;3.93;;;;;;;;;;5076897;28;21024;-82
2023/01/11 09:41:29;;;;;;;7.53;3.60;;;;;;;;;;5075110;28;20583;-82
2023/01/11 09:44:01;;;;;;;5.33;4.40;;;;;;;;;;5068622;28;20472;-81
2023/01/11 09:46:28;;;;;;;5.83;2.83;;;;;;;;;;5065055;28;20543;-82
2023/01/11 09:48:56;;;;;;;7.63;4.13;;;;;;;;;;5075436;28;20468;-83
2023/01/11 09:51:26;;;;;;;9.90;4.10;;;;;;;;;;5069948;28;20467;-82
2023/01/11 09:53:53;;;;;;;9.37;4.30;;;;;;;;;;5077977;28;20955;-82
2023/01/11 09:56:23;;;;;;;7.80;4.50;;;;;;;;;;5073176;28;21093;-81
2023/01/11 09:58:53;;;;;;;6.60;3.80;;;;;;;;;;5074242;28;20498;-81
2023/01/11 10:01:24;;;;;;;7.27;4.40;;;;;;;;;;5076173;28;20471;-82
2023/01/11 10:04:15;;;;;;;8.83;4.87;;;;;;;;;;5070629;28;20968;-81
2023/01/11 10:06:45;;;;;;;11.20;4.77;;;;;;;;;;5041593;28;20479;-83
2023/01/11 10:09:19;;;;;;;10.00;5.03;;;;;;;;;;5072213;28;20477;-81
2023/01/11 10:11:56;;;;;;;7.30;5.43;;;;;;;;;;5071851;28;20541;-82
2023/01/11 10:14:32;;;;;;;21.50;7.67;;;;;;;;;;5078552;28;20939;-82
2023/01/11 10:17:03;;;;;;;12.70;6.13;;;;;;;;;;5069414;28;20528;-81
2023/01/11 10:19:34;;;;;;;9.73;5.90;;;;;;;;;;5066562;28;20499;-82
2023/01/11 10:22:05;;;;;;;17.90;6.07;;;;;;;;;;5074125;28;20467;-82
2023/01/11 10:24:36;;;;;;;10.37;6.87;;;;;;;;;;5073645;28;20447;-83
2023/01/11 10:27:08;;;;;;;7.37;5.80;;;;;;;;;;5075517;28;20565;-82
2023/01/11 10:29:48;;;;;;;12.60;5.47;;;;;;;;;;5078026;28;20542;-81
2023/01/11 10:32:51;;;;;;;8.57;5.30;;;;;;;;;;5072836;28;20494;-82
2023/01/11 10:35:30;;;;;;;18.23;5.40;;;;;;;;;;5070573;28;20442;-81
2023/01/11 10:38:09;;;;;;;10.03;4.80;;;;;;;;;;5069798;28;20867;-82
2023/01/11 10:41:01;;;;;;;16.27;4.93;;;;;;;;;;5071420;28;20442;-83
2023/01/11 10:43:28;;;;;;;10.93;5.00;;;;;;;;;;5074355;28;20879;-81
2023/01/11 10:45:56;;;;;;;19.23;4.43;;;;;;;;;;5066883;28;20451;-82
2023/01/11 10:48:26;;;;;;;12.03;3.83;;;;;;;;;;5075877;28;20479;-82
2023/01/11 10:50:56;;;;;;;14.93;3.80;;;;;;;;;;5067001;28;20463;-81
2023/01/11 10:53:25;;;;;;;8.40;5.03;;;;;;;;;;5070564;28;20442;-82
2023/01/11 10:55:55;;;;;;;12.57;3.53;;;;;;;;;;5079133;28;20459;-81
2023/01/11 10:58:35;;;;;;;9.80;3.70;;;;;;;;;;5075968;28;20490;-82
2023/01/11 11:01:07;;;;;;;13.57;3.40;;;;;;;;;;5072149;28;20828;-82
2023/01/11 11:03:43;;;;;;;8.57;3.00;;;;;;;;;;5066849;28;20432;-82
2023/01/11 11:06:13;;;;;;;12.73;4.00;;;;;;;;;;5073139;28;20460;-82
2023/01/11 11:08:47;;;;;;;13.90;3.70;;;;;;;;;;5075323;28;20538;-81
2023/01/11 11:11:16;;;;;;;10.80;3.33;;;;;;;;;;5067989;28;20463;-81
2023/01/11 11:13:46;;;;;;;9.47;3.27;;;;;;;;;;5074286;28;20447;-82
2023/01/11 11:16:19;;;;;;;10.57;3.73;;;;;;;;;;5063200;28;21035;-82
2023/01/11 11:18:46;;;;;;;14.70;3.77;;;;;;;;;;5066860;28;20502;-82
2023/01/11 11:21:20;;;;;;;8.20;3.20;;;;;;;;;;5071374;28;20462;-82
2023/01/11 11:23:49;;;;;;;12.20;3.43;;;;;;;;;;5072899;28;20448;-81
2023/01/11 11:26:17;;;;;;;13.40;3.00;;;;;;;;;;5073612;28;20838;-82
2023/01/11 11:28:59;;;;;;;10.50;3.30;;;;;;;;;;5063466;28;20519;-82
2023/01/11 11:31:25;;;;;;;10.67;3.20;;;;;;;;;;5065217;28;20459;-82
2023/01/11 11:33:53;;;;;;;20.30;3.80;;;;;;;;;;5074788;28;20447;-82
2023/01/11 11:36:19;;;;;;;12.77;3.63;;;;;;;;;;5068556;28;20482;-82
2023/01/11 11:39:00;;;;;;;7.63;3.53;;;;;;;;;;5072954;28;20483;-83
2023/01/11 11:41:27;;;;;;;14.97;4.53;;;;;;;;;;5072812;28;20475;-82
2023/01/11 11:44:07;;;;;;;11.03;4.10;;;;;;;;;;5069632;28;20445;-83
2023/01/11 11:46:34;;;;;;;14.47;4.00;;;;;;;;;;5070772;28;20471;-82
2023/01/11 11:49:15;;;;;;;11.53;4.53;;;;;;;;;;5069123;28;20471;-82
2023/01/11 11:51:42;;;;;;;18.90;4.77;;;;;;;;;;5068514;28;20471;-81
2023/01/11 11:54:16;;;;;;;16.60;5.47;;;;;;;;;;5074793;28;20464;-81
2023/01/11 11:56:42;;;;;;;18.67;5.53;;;;;;;;;;5083221;28;20499;-82
2023/01/11 11:59:10;;;;;;;12.03;4.70;;;;;;;;;;5073637;28;20861;-81
2023/01/11 12:01:38;;;;;;;12.97;4.80;;;;;;;;;;5065899;28;20483;-82
2023/01/11 12:04:11;;;;;;;7.70;4.30;;;;;;;;;;5077918;28;20445;-82
2023/01/11 12:06:40;;;;;;;17.67;5.60;;;;;;;;;;5081577;28;20466;-83
2023/01/11 12:09:10;;;;;;;21.87;6.63;;;;;;;;;;5076619;28;20455;-82
2023/01/11 12:11:39;;;;;;;13.57;5.87;;;;;;;;;;5072292;28;20472;-82
2023/01/11 12:14:15;;;;;;;10.27;3.90;;;;;;;;;;5074344;28;20998;-82
2023/01/11 12:16:43;;;;;;;8.83;4.47;;;;;;;;;;5075759;28;20470;-82
2023/01/11 12:19:25;;;;;;;11.40;4.77;;;;;;;;;;5075839;28;20502;-82
2023/01/11 12:21:52;;;;;;;7.07;3.90;;;;;;;;;;5075226;28;20459;-81
2023/01/11 12:24:21;;;;;;;15.27;4.03;;;;;;;;;;5081535;28;20952;-81
2023/01/11 12:26:53;;;;;;;4.63;3.00;;;;;;;;;;5072815;28;20471;-81
2023/01/11 12:29:32;;;;;;;8.23;3.97;;;;;;;;;;5071643;28;20458;-82
2023/01/11 12:32:09;;;;;;;10.63;3.87;;;;;;;;;;5071969;28;21024;-81
2023/01/11 12:34:45;;;;;;;10.30;2.83;;;;;;;;;;5071567;28;20452;-81
2023/01/11 12:37:17;;;;;;;6.63;3.00;;;;;;;;;;5069160;28;20481;-81
2023/01/11 12:39:48;;;;;;;18.10;3.50;;;;;;;;;;5067168;28;20498;-82
2023/01/11 12:42:27;;;;;;;10.50;2.80;;;;;;;;;;5072265;28;20493;-82
2023/01/11 12:45:02;;;;;;;12.87;3.40;;;;;;;;;;5072875;28;20546;-82
2023/01/11 12:47:42;;;;;;;9.37;3.37;;;;;;;;;;5077210;28;20466;-82
2023/01/11 12:50:14;;;;;;;9.23;2.80;;;;;;;;;;5073683;28;20431;-81
2023/01/11 12:52:48;;;;;;;10.00;3.87;;;;;;;;;;5074996;28;21031;-82
2023/01/11 12:55:32;;;;;;;13.30;3.90;;;;;;;;;;5076293;28;20440;-81
2023/01/11 12:58:00;;;;;;;13.83;4.03;;;;;;;;;;5071474;28;20468;-82
2023/01/11 13:00:35;;;;;;;8.97;3.50;;;;;;;;;;5076821;28;20486;-82
2023/01/11 13:03:20;;;;;;;8.73;2.70;;;;;;;;;;5071026;28;20477;-81
2023/01/11 13:05:53;;;;;;;9.87;2.83;;;;;;;;;;5071979;28;20459;-82
2023/01/11 13:08:22;;;;;;;10.40;2.90;;;;;;;;;;5076161;28;20459;-82
2023/01/11 13:10:55;;;;;;;7.47;3.30;;;;;;;;;;5074811;28;20439;-81
2023/01/11 13:13:26;;;;;;;10.87;4.60;;;;;;;;;;5079954;28;20454;-82
2023/01/11 13:15:55;;;;;;;13.13;3.07;;;;;;;;;;5075386;28;20440;-82
2023/01/11 13:18:26;;;;;;;23.70;4.93;;;;;;;;;;5075608;28;20531;-82
2023/01/11 13:20:54;;;;;;;10.90;3.83;;;;;;;;;;5080490;28;20948;-82
2023/01/11 13:23:28;;;;;;;10.93;3.90;;;;;;;;;;5077767;28;20811;-82
2023/01/11 13:25:55;;;;;;;12.30;3.00;;;;;;;;;;5073559;28;21007;-82
2023/01/11 13:28:25;;;;;;;22.50;4.60;;;;;;;;;;5072074;28;20476;-82
2023/01/11 13:30:51;;;;;;;10.40;3.47;;;;;;;;;;5074079;28;20451;-81
2023/01/11 13:33:20;;;;;;;8.43;3.37;;;;;;;;;;5079242;28;20475;-81
2023/01/11 13:35:50;;;;;;;21.07;4.37;;;;;;;;;;5075581;28;20460;-82
2023/01/11 13:38:25;;;;;;;11.40;3.50;;;;;;;;;;5056070;28;20475;-81
2023/01/11 13:40:55;;;;;;;6.63;2.90;;;;;;;;;;5052460;28;20472;-82
2023/01/11 13:43:27;;;;;;;13.60;3.00;;;;;;;;;;5071251;28;20463;-81
2023/01/11 13:45:56;;;;;;;7.67;3.47;;;;;;;;;;5070904;28;20443;-82
2023/01/11 13:48:25;;;;;;;17.10;3.30;;;;;;;;;;5077602;28;20471;-82
2023/01/11 13:50:54;;;;;;;11.90;3.67;;;;;;;;;;5075148;28;20474;-82
2023/01/11 13:53:24;;;;;;;16.00;4.33;;;;;;;;;;5076152;28;20447;-82
2023/01/11 13:55:53;;;;;;;13.63;4.87;;;;;;;;;;5077076;28;20948;-82
2023/01/11 13:58:24;;;;;;;7.57;3.33;;;;;;;;;;5071239;28;20484;-82
2023/01/11 14:00:52;;;;;;;12.63;4.93;;;;;;;;;;5073333;28;20467;-82
2023/01/11 14:03:23;;;;;;;7.53;4.33;;;;;;;;;;5072882;28;20450;-82
2023/01/11 14:05:54;;;;;;;5.90;3.90;;;;;;;;;;5070975;28;20446;-82
2023/01/11 14:08:27;;;;;;;17.30;4.40;;;;;;;;;;5069686;28;21023;-82
2023/01/11 14:11:01;;;;;;;6.13;3.10;;;;;;;;;;5067959;28;20443;-82
2023/01/11 14:16:33;;;;;;;16.20;4.30;;;;;;;;;;5074854;28;20541;-82
2023/01/11 14:19:01;;;;;;;9.90;4.63;;;;;;;;;;5070781;28;20495;-81
2023/01/11 14:21:30;;;;;;;9.63;3.57;;;;;;;;;;5076249;28;20467;-81
2023/01/11 14:23:56;;;;;;;17.63;4.00;;;;;;;;;;5077340;28;20466;-82
2023/01/11 14:26:37;;;;;;;5.83;4.20;;;;;;;;;;5072999;28;20470;-81
2023/01/11 14:29:14;;;;;;;15.37;4.60;;;;;;;;;;5075428;28;21010;-82
2023/01/11 14:31:49;;;;;;;5.03;3.50;;;;;;;;;;5068151;28;20497;-82
2023/01/11 14:34:36;;;;;;;7.20;4.00;;;;;;;;;;5073491;28;20435;-82
2023/01/11 14:37:17;;;;;;;10.80;4.00;;;;;;;;;;5071711;28;20478;-82
2023/01/11 14:39:53;;;;;;;14.53;5.17;;;;;;;;;;5061296;28;20486;-82
2023/01/11 14:42:34;;;;;;;9.23;5.43;;;;;;;;;;5062053;28;20479;-81
2023/01/11 14:45:12;;;;;;;6.77;3.70;;;;;;;;;;5069550;28;20454;-82
2023/01/11 14:47:47;;;;;;;16.83;4.30;;;;;;;;;;5078171;28;20477;-82
2023/01/11 14:50:16;;;;;;;10.57;4.13;;;;;;;;;;5077847;28;20814;-82
2023/01/11 14:52:43;;;;;;;15.13;4.50;;;;;;;;;;5072500;28;20561;-83
2023/01/11 14:55:15;;;;;;;12.63;4.57;;;;;;;;;;5076406;28;20448;-82
2023/01/11 14:57:43;;;;;;;7.20;4.20;;;;;;;;;;5074214;28;20499;-83
2023/01/11 15:00:28;;;;;;;15.80;4.10;;;;;;;;;;5074110;28;20489;-81
2023/01/11 15:03:20;;;;;;;7.90;3.97;;;;;;;;;;5068891;28;20470;-82
2023/01/11 15:05:47;;;;;;;21.50;5.10;;;;;;;;;;5072982;28;20483;-82
2023/01/11 15:08:20;;;;;;;9.80;3.80;;;;;;;;;;5073223;28;20472;-82
2023/01/11 15:10:50;;;;;;;8.93;4.40;;;;;;;;;;5072672;28;20443;-82
2023/01/11 15:13:18;;;;;;;11.43;4.40;;;;;;;;;;5069486;28;20475;-82
2023/01/11 15:18:30;;;;;;;14.17;5.80;;;;;;;;;;5069593;28;20819;-82
2023/01/11 15:20:58;;;;;;;10.37;5.27;;;;;;;;;;5067369;28;20479;-82
2023/01/11 15:23:24;;;;;;;14.03;4.67;;;;;;;;;;5071675;28;20831;-82
2023/01/11 15:25:59;;;;;;;11.10;3.90;;;;;;;;;;5074966;28;20448;-82